Etusivu
METAR-TAF:

METAR-TAF

Lentoasemat :

İzmit, Turkki

Leveyspiiri: 40-44N, Pituuspiiri: 030-05E, korkeus merenpinnasta: 50 m

Tämänhetkinen sää

Tämä raportti tehtiin 28 minuuttia sitten, kello 17.50 UTC
tyyntä
Lämpötila 13°C
Kosteus 100%
Ilmanpaine 1015 hPa
Näkyvyys 10 km tai enemmän
Muutamia pilviä 3800 ft:n korkeudessa
Hajanaisia pilviä 12000 ft:n korkeudessa

METAR: LTBQ 291750Z 00000KT 9999 FEW038 SCT120 13/13 Q1015 NOSIG

Aika: 21:18 (18:18 UTC)

Sääennuste

Tämä raportti tehtiin 1 tunti ja 38 minuuttia sitten, kello 16.40 UTC
Ennuste voimassa 29. päivästä klo 18 UTC - 30. päivään klo 03 UTC
Tuuli 2 kn eri suunnista
Näkyvyys 10 km tai enemmän
Hajanaisia pilviä 3000 ft:n korkeudessa

TAF: LTBQ 291640Z 2918/3003 VRB02KT 9999 SCT030

Säähavainnot ja -ennusteet yli 4000 lentoasemalta (METAR- ja TAF-raportit).

Käytössä olevat sääasemat on merkitty karttaan keltaisilla ja punaisilla pisteillä.

Aseta hiiri pisteen päälle nähdäksesi sääaseman nimen.

Klikkaa sitten nähdäksesi säähavainnot ja -ennusteet.

Kartan vaihtaminen: klikkaa mustalla rastilla varustettuja vihreitä pisteitä, niin voit zoomata sisään; viivalla varustettua vihreää pistettä, niin voit zoomata ulos tai vihreitä nuolia, niin pääset viereisille kartoille.


METAR-TAF: